createdAt,value
2022-12-05T00:00:12.503Z,13.30
2022-12-05T00:01:21.966Z,14.20
2022-12-05T00:02:24.219Z,13.57
2022-12-05T00:03:27.020Z,12.77
2022-12-05T00:04:29.439Z,12.90
2022-12-05T00:05:32.128Z,13.23
2022-12-05T00:06:35.512Z,13.40
2022-12-05T00:07:39.552Z,13.23
2022-12-05T00:08:42.071Z,14.47
2022-12-05T00:09:44.459Z,13.43
2022-12-05T00:10:46.619Z,13.93
2022-12-05T00:11:48.961Z,13.00
2022-12-05T00:12:51.137Z,12.20
2022-12-05T00:13:55.185Z,13.07
2022-12-05T00:14:57.584Z,13.77
2022-12-05T00:15:59.775Z,13.70
2022-12-05T00:17:02.072Z,13.73
2022-12-05T00:18:04.709Z,13.23
2022-12-05T00:19:08.606Z,14.53
2022-12-05T00:20:11.101Z,13.50
2022-12-05T00:21:24.460Z,13.67
2022-12-05T00:22:27.139Z,13.47
2022-12-05T00:23:29.371Z,13.47
2022-12-05T00:24:31.618Z,23.17
2022-12-05T00:25:36.448Z,26.70
2022-12-05T00:26:38.652Z,25.47
2022-12-05T00:27:40.933Z,28.90
2022-12-05T00:28:43.823Z,29.17
2022-12-05T00:29:46.066Z,31.07
2022-12-05T00:30:48.333Z,33.03
2022-12-05T00:31:50.593Z,33.07
2022-12-05T00:32:52.866Z,30.23
2022-12-05T00:33:56.337Z,33.50
2022-12-05T00:34:58.712Z,32.30
2022-12-05T00:36:08.290Z,34.20
2022-12-05T00:37:10.489Z,32.90
2022-12-05T00:38:12.725Z,33.57
2022-12-05T00:39:15.510Z,32.07
2022-12-05T00:40:17.834Z,33.77
2022-12-05T00:41:25.625Z,31.63
2022-12-05T00:42:27.879Z,32.87
2022-12-05T00:43:30.257Z,33.53
2022-12-05T00:44:32.529Z,32.73
2022-12-05T00:45:34.868Z,31.67
2022-12-05T00:46:37.892Z,32.30
2022-12-05T00:47:40.158Z,31.77
2022-12-05T00:48:42.897Z,31.67
2022-12-05T00:49:45.079Z,32.80
2022-12-05T00:50:47.330Z,32.10
2022-12-05T00:51:49.638Z,31.50
2022-12-05T00:52:51.972Z,31.00
2022-12-05T00:53:55.887Z,31.43
2022-12-05T00:54:58.160Z,31.10
2022-12-05T00:56:10.477Z,32.07
2022-12-05T00:57:12.701Z,28.57
2022-12-05T00:58:17.154Z,32.63
2022-12-05T00:59:20.080Z,30.07
2022-12-05T01:00:22.317Z,29.77
2022-12-05T01:01:27.829Z,29.50
2022-12-05T01:02:30.607Z,30.43
2022-12-05T01:03:32.885Z,30.33
2022-12-05T01:04:35.122Z,29.60
2022-12-05T01:05:37.362Z,30.33
2022-12-05T01:06:42.453Z,28.73
2022-12-05T01:07:44.693Z,31.67
2022-12-05T01:08:47.230Z,29.83
2022-12-05T01:09:49.446Z,29.27
2022-12-05T01:10:57.149Z,30.83
2022-12-05T01:11:59.466Z,27.23
2022-12-05T01:13:01.655Z,31.17
2022-12-05T01:14:04.388Z,29.03
2022-12-05T01:15:07.331Z,29.23
2022-12-05T01:16:21.811Z,27.57
2022-12-05T01:17:24.400Z,29.97
2022-12-05T01:18:27.604Z,28.10
2022-12-05T01:19:33.256Z,29.33
2022-12-05T01:20:35.426Z,28.47
2022-12-05T01:21:37.613Z,28.23
2022-12-05T01:22:39.884Z,27.07
2022-12-05T01:23:42.076Z,26.03
2022-12-05T01:24:44.304Z,26.83
2022-12-05T01:25:49.097Z,28.07
2022-12-05T01:26:51.741Z,27.83
2022-12-05T01:27:54.201Z,27.30
2022-12-05T01:28:58.856Z,28.80
2022-12-05T01:30:01.247Z,28.03
2022-12-05T01:31:08.556Z,28.90
2022-12-05T01:32:10.939Z,29.93
2022-12-05T01:33:13.957Z,27.63
2022-12-05T01:34:18.304Z,27.97
2022-12-05T01:35:20.570Z,27.40
2022-12-05T01:36:23.613Z,29.57
2022-12-05T01:37:25.922Z,30.70
2022-12-05T01:38:29.406Z,28.93
2022-12-05T01:39:31.711Z,31.27
2022-12-05T01:40:38.411Z,28.83
2022-12-05T01:41:45.377Z,29.90
2022-12-05T01:42:47.630Z,28.07
2022-12-05T01:43:54.289Z,30.33
2022-12-05T01:45:08.190Z,30.10
2022-12-05T01:46:10.420Z,29.33
2022-12-05T01:47:18.085Z,30.40
2022-12-05T01:48:27.373Z,30.97
2022-12-05T01:49:36.173Z,31.83
2022-12-05T01:50:38.877Z,29.33
2022-12-05T01:51:45.229Z,28.53
2022-12-05T01:52:47.452Z,29.83
2022-12-05T01:53:49.700Z,29.33
2022-12-05T01:54:57.068Z,27.73
2022-12-05T01:55:59.306Z,27.37
2022-12-05T01:57:05.335Z,29.77
2022-12-05T01:58:09.997Z,27.63
2022-12-05T01:59:18.690Z,30.73
2022-12-05T02:00:21.479Z,29.00
2022-12-05T02:01:23.845Z,30.90
2022-12-05T02:02:27.890Z,28.87
2022-12-05T02:03:30.248Z,28.53
2022-12-05T02:04:39.036Z,29.47
2022-12-05T02:05:41.632Z,28.37
2022-12-05T02:06:44.181Z,28.70
2022-12-05T02:07:48.258Z,30.83
2022-12-05T02:08:53.140Z,29.60
2022-12-05T02:09:55.737Z,30.60
2022-12-05T02:10:59.033Z,28.30
2022-12-05T02:12:03.446Z,28.93
2022-12-05T02:13:38.021Z,30.43
2022-12-05T02:15:05.009Z,30.07
2022-12-05T02:16:26.643Z,28.90
2022-12-05T02:17:46.204Z,28.60
2022-12-05T02:19:14.631Z,30.17
2022-12-05T02:20:32.608Z,29.70
2022-12-05T02:22:11.922Z,28.00
2022-12-05T02:23:35.827Z,28.90
2022-12-05T02:25:12.065Z,29.50
2022-12-05T02:26:38.845Z,29.80
2022-12-05T02:28:18.552Z,30.20
2022-12-05T02:29:49.125Z,26.43
2022-12-05T02:30:56.420Z,30.70
2022-12-05T02:32:19.950Z,29.43
2022-12-05T02:33:56.989Z,27.27
2022-12-05T02:35:11.449Z,27.33
2022-12-05T02:36:36.935Z,27.43
2022-12-05T02:38:04.200Z,27.90
2022-12-05T02:39:33.067Z,29.20
2022-12-05T02:40:53.203Z,28.23
2022-12-05T02:42:27.186Z,27.70
2022-12-05T02:43:41.444Z,29.93
2022-12-05T02:44:56.427Z,28.57
2022-12-05T02:46:03.695Z,29.53
2022-12-05T02:47:09.007Z,31.53
2022-12-05T02:48:14.410Z,29.93
2022-12-05T02:49:22.192Z,30.83
2022-12-05T02:50:31.796Z,31.27
2022-12-05T02:51:40.912Z,29.30
2022-12-05T02:52:45.433Z,30.37
2022-12-05T02:53:49.662Z,29.73
2022-12-05T02:54:55.036Z,28.80
2022-12-05T02:55:58.072Z,29.30
2022-12-05T02:57:02.601Z,30.67
2022-12-05T02:58:14.602Z,29.73
2022-12-05T02:59:22.889Z,30.87
2022-12-05T03:00:28.102Z,29.50
2022-12-05T03:01:32.757Z,28.90
2022-12-05T03:02:35.280Z,31.53
2022-12-05T03:03:38.453Z,30.40
2022-12-05T03:04:40.688Z,30.90
2022-12-05T03:05:51.528Z,30.63
2022-12-05T03:07:12.240Z,29.57
2022-12-05T03:08:19.974Z,30.60
2022-12-05T03:09:28.622Z,31.40
2022-12-05T03:10:34.569Z,30.70
2022-12-05T03:11:49.532Z,30.73
2022-12-05T03:12:56.702Z,28.87
2022-12-05T03:14:02.350Z,30.33
2022-12-05T03:15:23.029Z,29.53
2022-12-05T03:16:41.119Z,28.20
2022-12-05T03:17:54.520Z,29.50
2022-12-05T03:19:01.093Z,29.63
2022-12-05T03:20:21.778Z,31.67
2022-12-05T03:22:06.817Z,30.43
2022-12-05T03:23:32.261Z,31.20
2022-12-05T03:24:40.423Z,34.63
2022-12-05T03:26:18.266Z,35.77
2022-12-05T03:27:51.553Z,35.80
2022-12-05T03:29:18.523Z,34.60
2022-12-05T03:30:23.499Z,32.27
2022-12-05T03:31:42.412Z,31.33
2022-12-05T03:32:53.890Z,33.50
2022-12-05T03:33:59.883Z,33.40
2022-12-05T03:35:14.215Z,31.23
2022-12-05T03:36:23.345Z,32.27
2022-12-05T03:37:45.312Z,31.63
2022-12-05T03:38:54.744Z,33.73
2022-12-05T03:40:19.026Z,33.17
2022-12-05T03:41:30.862Z,33.30
2022-12-05T03:42:36.882Z,32.93
2022-12-05T03:43:58.204Z,32.37
2022-12-05T03:45:08.546Z,32.33
2022-12-05T03:46:22.328Z,33.10
2022-12-05T03:47:53.049Z,34.67
2022-12-05T03:49:09.744Z,31.73
2022-12-05T03:50:25.668Z,34.20
2022-12-05T03:51:57.571Z,31.97
2022-12-05T03:53:42.761Z,34.87
2022-12-05T03:54:55.378Z,33.30
2022-12-05T03:56:07.567Z,32.77
2022-12-05T03:57:19.228Z,34.50
2022-12-05T03:58:28.911Z,32.97
2022-12-05T03:59:34.039Z,30.47
2022-12-05T04:00:41.953Z,34.03
2022-12-05T04:01:48.334Z,32.17
2022-12-05T04:02:56.416Z,32.60
2022-12-05T04:04:05.163Z,30.63
2022-12-05T04:05:13.491Z,34.20
2022-12-05T04:06:27.065Z,32.87
2022-12-05T04:07:32.131Z,33.67
2022-12-05T04:08:53.790Z,32.80
2022-12-05T04:09:59.449Z,31.60
2022-12-05T04:11:08.064Z,33.37
2022-12-05T04:12:26.301Z,33.30
2022-12-05T04:13:34.630Z,33.27
2022-12-05T04:14:42.391Z,34.03
2022-12-05T04:16:18.185Z,33.43
2022-12-05T04:17:24.762Z,32.33
2022-12-05T04:18:28.585Z,35.50
2022-12-05T04:19:58.834Z,31.83
2022-12-05T04:21:22.640Z,32.73
2022-12-05T04:22:26.270Z,34.10
2022-12-05T04:23:28.845Z,33.70
2022-12-05T04:24:51.546Z,32.87
2022-12-05T04:26:08.862Z,33.70
2022-12-05T04:27:28.947Z,33.63
2022-12-05T04:28:39.137Z,35.70
2022-12-05T04:29:54.931Z,33.87
2022-12-05T04:31:32.537Z,35.17
2022-12-05T04:32:44.842Z,34.60
2022-12-05T04:33:54.266Z,34.60
2022-12-05T04:35:01.988Z,34.50
2022-12-05T04:36:16.293Z,34.90
2022-12-05T04:37:23.613Z,33.47
2022-12-05T04:38:32.508Z,34.23
2022-12-05T04:39:44.773Z,33.27
2022-12-05T04:41:01.370Z,33.47
2022-12-05T04:42:10.688Z,34.70
2022-12-05T04:43:16.385Z,35.63
2022-12-05T04:44:24.515Z,37.50
2022-12-05T04:45:28.297Z,38.97
2022-12-05T04:46:30.595Z,36.63
2022-12-05T04:47:39.443Z,35.47
2022-12-05T04:48:48.663Z,37.43
2022-12-05T04:49:53.944Z,35.20
2022-12-05T04:50:57.235Z,35.23
2022-12-05T04:52:04.496Z,37.10
2022-12-05T04:53:11.277Z,33.73
2022-12-05T04:54:36.425Z,35.97
2022-12-05T04:55:42.522Z,36.20
2022-12-05T04:56:46.888Z,35.63
2022-12-05T04:58:07.903Z,35.83
2022-12-05T04:59:10.974Z,33.93
2022-12-05T05:00:13.557Z,38.53
2022-12-05T05:01:22.961Z,36.80
2022-12-05T05:02:36.044Z,34.83
2022-12-05T05:03:58.152Z,32.83
2022-12-05T05:05:03.782Z,34.77
2022-12-05T05:06:07.313Z,33.63
2022-12-05T05:07:11.486Z,36.80
2022-12-05T05:08:22.256Z,35.67
2022-12-05T05:09:24.581Z,34.03
2022-12-05T05:10:39.760Z,35.87
2022-12-05T05:11:42.117Z,37.63
2022-12-05T05:12:44.406Z,35.57
2022-12-05T05:13:47.085Z,34.00
2022-12-05T05:14:49.356Z,34.63
2022-12-05T05:15:51.609Z,33.27
2022-12-05T05:16:53.910Z,35.07
2022-12-05T05:17:58.953Z,34.53
2022-12-05T05:19:01.250Z,32.53
2022-12-05T05:20:23.029Z,35.97
2022-12-05T05:21:26.859Z,34.13
2022-12-05T05:22:29.107Z,35.13
2022-12-05T05:23:31.325Z,33.97
2022-12-05T05:24:33.586Z,35.63
2022-12-05T05:25:36.233Z,37.20
2022-12-05T05:26:40.918Z,34.07
2022-12-05T05:27:43.124Z,34.13
2022-12-05T05:28:46.216Z,33.60
2022-12-05T05:29:48.435Z,33.90
2022-12-05T05:30:50.773Z,33.47
2022-12-05T05:31:53.000Z,36.53
2022-12-05T05:32:55.264Z,33.60
2022-12-05T05:33:57.780Z,33.50
2022-12-05T05:34:59.956Z,35.33
2022-12-05T05:36:09.991Z,36.03
2022-12-05T05:37:12.245Z,35.03
2022-12-05T05:38:14.581Z,34.67
2022-12-05T05:39:17.054Z,34.73
2022-12-05T05:40:19.917Z,34.87
2022-12-05T05:41:27.781Z,31.60
2022-12-05T05:42:30.143Z,33.00
2022-12-05T05:43:32.753Z,35.27
2022-12-05T05:44:35.085Z,34.03
2022-12-05T05:45:37.479Z,35.47
2022-12-05T05:46:40.657Z,32.90
2022-12-05T05:47:43.243Z,34.83
2022-12-05T05:48:45.799Z,34.03
2022-12-05T05:49:48.051Z,33.80
2022-12-05T05:50:50.294Z,33.60
2022-12-05T05:51:52.543Z,35.23
2022-12-05T05:52:55.182Z,34.50
2022-12-05T05:53:58.632Z,34.17
2022-12-05T05:55:01.594Z,34.97
2022-12-05T05:56:20.941Z,33.23
2022-12-05T05:57:23.929Z,33.83
2022-12-05T05:58:26.305Z,34.70
2022-12-05T05:59:28.538Z,32.13
2022-12-05T06:00:30.801Z,34.30
2022-12-05T06:01:33.078Z,37.13
2022-12-05T06:02:36.349Z,33.80
2022-12-05T06:03:40.071Z,33.23
2022-12-05T06:04:42.434Z,32.33
2022-12-05T06:05:48.698Z,33.27
2022-12-05T06:06:53.889Z,34.60
2022-12-05T06:07:56.974Z,34.70
2022-12-05T06:08:59.667Z,36.80
2022-12-05T06:10:02.131Z,36.53
2022-12-05T06:11:25.477Z,34.77
2022-12-05T06:12:29.041Z,34.53
2022-12-05T06:13:31.343Z,34.73
2022-12-05T06:14:33.696Z,34.53
2022-12-05T06:15:37.366Z,36.63
2022-12-05T06:16:39.709Z,35.17
2022-12-05T06:17:42.030Z,35.53
2022-12-05T06:18:44.459Z,33.50
2022-12-05T06:19:46.864Z,35.10
2022-12-05T06:20:57.530Z,35.13
2022-12-05T06:21:59.907Z,32.23
2022-12-05T06:23:02.140Z,36.00
2022-12-05T06:24:04.619Z,33.20
2022-12-05T06:25:08.108Z,36.07
2022-12-05T06:26:23.459Z,30.93
2022-12-05T06:27:26.185Z,34.37
2022-12-05T06:28:28.548Z,36.60
2022-12-05T06:29:33.784Z,34.97
2022-12-05T06:30:38.690Z,34.30
2022-12-05T06:31:42.020Z,34.60
2022-12-05T06:32:44.387Z,35.90
2022-12-05T06:33:46.807Z,37.57
2022-12-05T06:34:49.239Z,35.80
2022-12-05T06:36:06.127Z,33.23
2022-12-05T06:37:08.603Z,35.83
2022-12-05T06:38:11.314Z,33.83
2022-12-05T06:39:13.555Z,35.80
2022-12-05T06:40:15.842Z,37.03
2022-12-05T06:41:20.311Z,34.63
2022-12-05T06:42:22.528Z,33.00
2022-12-05T06:43:24.748Z,33.60
2022-12-05T06:44:27.237Z,34.57
2022-12-05T06:45:29.637Z,33.13
2022-12-05T06:46:31.964Z,36.07
2022-12-05T06:47:37.369Z,37.30
2022-12-05T06:48:39.824Z,34.47
2022-12-05T06:49:42.324Z,35.87
2022-12-05T06:50:54.951Z,33.87
2022-12-05T06:51:57.196Z,35.87
2022-12-05T06:52:59.736Z,35.43
2022-12-05T06:54:01.978Z,34.13
2022-12-05T06:55:04.809Z,36.47
2022-12-05T06:56:16.708Z,36.67
2022-12-05T06:57:18.972Z,36.33
2022-12-05T06:58:21.155Z,34.07
2022-12-05T06:59:23.513Z,32.07
2022-12-05T07:00:44.247Z,33.47
2022-12-05T07:01:47.491Z,37.70
2022-12-05T07:02:53.591Z,37.43
2022-12-05T07:03:56.874Z,35.93
2022-12-05T07:04:59.116Z,32.87
2022-12-05T07:06:02.536Z,35.20
2022-12-05T07:07:04.856Z,33.67
2022-12-05T07:08:09.412Z,34.77
2022-12-05T07:09:19.591Z,36.57
2022-12-05T07:10:25.675Z,33.63
2022-12-05T07:11:28.472Z,38.23
2022-12-05T07:12:33.664Z,34.00
2022-12-05T07:13:57.179Z,34.83
2022-12-05T07:15:10.486Z,33.83
2022-12-05T07:16:18.474Z,35.00
2022-12-05T07:17:26.600Z,33.50
2022-12-05T07:18:46.260Z,33.87
2022-12-05T07:19:55.285Z,33.77
2022-12-05T07:21:14.510Z,33.07
2022-12-05T07:22:21.662Z,33.63
2022-12-05T07:23:36.242Z,32.53
2022-12-05T07:24:42.171Z,32.50
2022-12-05T07:25:51.229Z,30.97
2022-12-05T07:26:54.706Z,32.90
2022-12-05T07:27:56.920Z,32.73
2022-12-05T07:28:59.106Z,30.40
2022-12-05T07:30:01.613Z,32.13
2022-12-05T07:31:07.564Z,34.63
2022-12-05T07:32:09.871Z,30.73
2022-12-05T07:33:12.131Z,30.37
2022-12-05T07:34:14.335Z,33.30
2022-12-05T07:35:16.641Z,32.77
2022-12-05T07:36:21.836Z,32.10
2022-12-05T07:37:24.293Z,31.27
2022-12-05T07:38:26.603Z,33.63
2022-12-05T07:39:28.926Z,34.77
2022-12-05T07:40:31.276Z,33.23
2022-12-05T07:41:33.642Z,33.40
2022-12-05T07:42:41.356Z,34.17
2022-12-05T07:43:43.580Z,35.07
2022-12-05T07:44:45.886Z,33.63
2022-12-05T07:45:48.238Z,35.03
2022-12-05T07:46:50.459Z,34.33
2022-12-05T07:47:52.696Z,36.37
2022-12-05T07:48:58.698Z,37.33
2022-12-05T07:50:01.153Z,34.60
2022-12-05T07:51:06.010Z,34.13
2022-12-05T07:52:10.312Z,33.47
2022-12-05T07:53:12.520Z,35.17
2022-12-05T07:54:14.753Z,36.07
2022-12-05T07:55:16.967Z,33.90
2022-12-05T07:56:19.363Z,31.90
2022-12-05T07:57:21.618Z,35.47
2022-12-05T07:58:23.883Z,33.97
2022-12-05T07:59:28.579Z,33.83
2022-12-05T08:00:30.822Z,33.10
2022-12-05T08:01:34.532Z,32.87
2022-12-05T08:02:40.574Z,32.73
2022-12-05T08:03:44.287Z,32.73
2022-12-05T08:04:46.483Z,32.03
2022-12-05T08:05:48.779Z,33.97
2022-12-05T08:06:50.972Z,30.77
2022-12-05T08:07:53.203Z,37.13
2022-12-05T08:08:59.206Z,32.63
2022-12-05T08:10:01.424Z,33.57
2022-12-05T08:11:09.981Z,32.40
2022-12-05T08:12:14.431Z,33.57
2022-12-05T08:13:16.692Z,33.90
2022-12-05T08:14:18.909Z,34.57
2022-12-05T08:15:21.229Z,33.20
2022-12-05T08:16:26.315Z,34.30
2022-12-05T08:17:30.099Z,33.60
2022-12-05T08:18:32.628Z,32.90
2022-12-05T08:19:34.858Z,32.37
2022-12-05T08:20:37.582Z,34.77
2022-12-05T08:21:40.263Z,29.67
2022-12-05T08:22:42.493Z,32.03
2022-12-05T08:23:45.969Z,32.53
2022-12-05T08:24:56.094Z,33.47
2022-12-05T08:26:05.858Z,34.10
2022-12-05T08:27:11.097Z,33.90
2022-12-05T08:28:13.393Z,34.63
2022-12-05T08:29:16.813Z,33.60
2022-12-05T08:30:19.115Z,34.53
2022-12-05T08:31:29.511Z,35.53
2022-12-05T08:32:31.832Z,31.80
2022-12-05T08:33:37.262Z,35.30
2022-12-05T08:34:39.515Z,34.07
2022-12-05T08:35:41.744Z,36.33
2022-12-05T08:36:44.503Z,35.13
2022-12-05T08:37:46.707Z,34.03
2022-12-05T08:38:49.062Z,36.10
2022-12-05T08:39:51.641Z,34.43
2022-12-05T08:40:53.873Z,34.60
2022-12-05T08:41:56.055Z,34.63
2022-12-05T08:42:58.315Z,34.47
2022-12-05T08:44:10.429Z,34.90
2022-12-05T08:45:12.715Z,35.07
2022-12-05T08:46:15.011Z,35.63
2022-12-05T08:47:17.693Z,34.93
2022-12-05T08:48:24.651Z,34.63
2022-12-05T08:49:29.952Z,36.57
2022-12-05T08:50:32.150Z,34.80
2022-12-05T08:51:34.661Z,36.77
2022-12-05T08:52:36.891Z,36.03
2022-12-05T08:53:44.630Z,37.80
2022-12-05T08:54:47.204Z,36.80
2022-12-05T08:55:50.679Z,38.03
2022-12-05T08:56:53.033Z,38.97
2022-12-05T08:57:55.248Z,38.70
2022-12-05T08:59:04.481Z,38.03
2022-12-05T09:00:09.777Z,37.63
2022-12-05T09:01:15.262Z,35.47
2022-12-05T09:02:17.636Z,35.00
2022-12-05T09:03:22.407Z,37.07
2022-12-05T09:04:25.492Z,34.33
2022-12-05T09:05:29.375Z,36.67
2022-12-05T09:06:33.142Z,34.40
2022-12-05T09:07:35.390Z,34.87
2022-12-05T09:08:38.638Z,38.17
2022-12-05T09:09:40.890Z,34.00
2022-12-05T09:10:43.131Z,32.97
2022-12-05T09:11:51.030Z,35.20
2022-12-05T09:12:54.071Z,35.43
2022-12-05T09:13:58.363Z,34.27
2022-12-05T09:15:00.683Z,35.27
2022-12-05T09:16:15.632Z,34.00
2022-12-05T09:17:17.933Z,35.83
2022-12-05T09:18:20.143Z,34.33
2022-12-05T09:19:24.245Z,34.43
2022-12-05T09:20:26.463Z,33.53
2022-12-05T09:21:30.644Z,34.63
2022-12-05T09:22:33.791Z,36.53
2022-12-05T09:23:36.371Z,34.70
2022-12-05T09:24:38.723Z,34.90
2022-12-05T09:25:41.011Z,34.17
2022-12-05T09:26:43.380Z,37.60
2022-12-05T09:27:46.681Z,33.53
2022-12-05T09:28:49.657Z,33.27
2022-12-05T09:29:51.877Z,36.20
2022-12-05T09:31:22.176Z,35.23
2022-12-05T09:32:24.489Z,34.27
2022-12-05T09:33:26.875Z,34.33
2022-12-05T09:34:29.537Z,34.87
2022-12-05T09:35:31.787Z,33.50
2022-12-05T09:36:34.445Z,35.03
2022-12-05T09:37:39.514Z,31.73
2022-12-05T09:38:44.528Z,33.00
2022-12-05T09:39:46.967Z,33.97
2022-12-05T09:41:04.559Z,32.23
2022-12-05T09:42:21.958Z,33.40
2022-12-05T09:44:00.768Z,32.60
2022-12-05T09:45:28.609Z,33.97
2022-12-05T09:46:41.564Z,31.57
2022-12-05T09:48:01.567Z,31.43
2022-12-05T09:49:05.534Z,30.67
2022-12-05T09:50:24.255Z,32.87
2022-12-05T09:51:26.951Z,32.23
2022-12-05T09:52:34.006Z,33.50
2022-12-05T09:53:40.729Z,32.73
2022-12-05T09:54:42.951Z,31.63
2022-12-05T09:56:05.557Z,31.63
2022-12-05T09:57:10.614Z,31.80
2022-12-05T09:58:25.185Z,32.57
2022-12-05T09:59:27.481Z,30.23
2022-12-05T10:00:31.917Z,32.77
2022-12-05T10:01:58.714Z,33.73
2022-12-05T10:03:24.809Z,31.20
2022-12-05T10:04:42.169Z,34.03
2022-12-05T10:05:52.516Z,32.17
2022-12-05T10:06:57.256Z,33.90
2022-12-05T10:08:24.122Z,32.33
2022-12-05T10:09:43.419Z,29.87
2022-12-05T10:11:06.592Z,32.17
2022-12-05T10:12:14.795Z,29.67
2022-12-05T10:13:29.054Z,33.23
2022-12-05T10:14:31.220Z,31.17
2022-12-05T10:15:55.805Z,34.50
2022-12-05T10:17:11.118Z,31.07
2022-12-05T10:18:43.160Z,31.70
2022-12-05T10:19:50.149Z,32.13
2022-12-05T10:21:06.936Z,33.27
2022-12-05T10:22:51.353Z,30.03
2022-12-05T10:23:59.086Z,31.17
2022-12-05T10:25:06.984Z,31.90
2022-12-05T10:26:12.766Z,31.47
2022-12-05T10:27:29.080Z,31.40
2022-12-05T10:28:43.114Z,32.83
2022-12-05T10:29:53.505Z,32.27
2022-12-05T10:31:02.814Z,33.77
2022-12-05T10:32:13.287Z,32.07
2022-12-05T10:33:20.853Z,34.00
2022-12-05T10:34:34.021Z,33.77
2022-12-05T10:35:39.781Z,31.23
2022-12-05T10:36:54.934Z,32.37
2022-12-05T10:37:59.955Z,31.30
2022-12-05T10:39:04.751Z,31.27
2022-12-05T10:40:12.964Z,33.40
2022-12-05T10:41:15.549Z,32.33
2022-12-05T10:42:21.151Z,33.70
2022-12-05T10:43:31.664Z,33.00
2022-12-05T10:44:36.464Z,35.17
2022-12-05T10:45:44.198Z,34.73
2022-12-05T10:46:46.573Z,37.77
2022-12-05T10:47:53.734Z,37.70
2022-12-05T10:48:56.705Z,37.63
2022-12-05T10:50:05.511Z,36.87
2022-12-05T10:51:14.260Z,35.57
2022-12-05T10:52:17.007Z,37.27
2022-12-05T10:53:24.228Z,38.20
2022-12-05T10:54:30.899Z,37.33
2022-12-05T10:56:06.619Z,35.17
2022-12-05T10:57:27.175Z,34.77
2022-12-05T10:58:30.017Z,33.23
2022-12-05T10:59:46.997Z,34.43
2022-12-05T11:00:53.290Z,35.67
2022-12-05T11:01:58.380Z,32.43
2022-12-05T11:03:05.610Z,31.10
2022-12-05T11:04:22.229Z,34.27
2022-12-05T11:05:30.365Z,31.40
2022-12-05T11:06:33.470Z,30.97
2022-12-05T11:07:52.551Z,32.20
2022-12-05T11:09:14.462Z,31.37
2022-12-05T11:10:26.941Z,29.50
2022-12-05T11:11:35.153Z,30.30
2022-12-05T11:12:40.005Z,30.93
2022-12-05T11:13:56.011Z,30.40
2022-12-05T11:14:58.556Z,31.33
2022-12-05T11:16:01.532Z,36.00
2022-12-05T11:17:06.218Z,31.33
2022-12-05T11:18:24.822Z,28.57
2022-12-05T11:19:33.506Z,30.67
2022-12-05T11:20:39.430Z,30.30
2022-12-05T11:21:43.454Z,28.63
2022-12-05T11:22:48.923Z,27.70
2022-12-05T11:23:51.277Z,28.30
2022-12-05T11:24:53.529Z,27.00
2022-12-05T11:25:58.253Z,27.50
2022-12-05T11:27:22.229Z,27.93
2022-12-05T11:28:31.367Z,29.97
2022-12-05T11:29:36.699Z,26.33
2022-12-05T11:30:38.968Z,28.43
2022-12-05T11:31:55.361Z,27.47
2022-12-05T11:33:22.898Z,25.00
2022-12-05T11:34:45.381Z,26.97
2022-12-05T11:35:56.872Z,25.63
2022-12-05T11:37:25.125Z,27.30
2022-12-05T11:38:28.819Z,25.77
2022-12-05T11:39:32.127Z,24.90
2022-12-05T11:40:53.304Z,26.50
2022-12-05T11:42:15.908Z,26.73
2022-12-05T11:43:55.009Z,25.30
2022-12-05T11:45:28.482Z,25.27
2022-12-05T11:46:55.475Z,27.63
2022-12-05T11:48:16.171Z,25.93
2022-12-05T11:49:37.305Z,24.97
2022-12-05T11:51:04.549Z,24.30
2022-12-05T11:52:19.132Z,25.90
2022-12-05T11:53:54.865Z,25.50
2022-12-05T11:55:16.981Z,24.50
2022-12-05T11:56:35.490Z,24.13
2022-12-05T11:58:15.089Z,24.77
2022-12-05T11:59:49.683Z,24.00
2022-12-05T12:01:02.282Z,21.00
2022-12-05T12:02:38.117Z,19.70
2022-12-05T12:03:50.221Z,18.80
2022-12-05T12:05:04.282Z,19.03
2022-12-05T12:06:25.327Z,19.07
2022-12-05T12:07:48.946Z,20.93
2022-12-05T12:09:22.115Z,16.40
2022-12-05T12:10:33.184Z,17.40
2022-12-05T12:11:47.634Z,17.17
2022-12-05T12:13:08.633Z,15.77
2022-12-05T12:14:35.297Z,15.27
2022-12-05T12:15:57.317Z,15.43
2022-12-05T12:17:21.019Z,14.07
2022-12-05T12:18:42.907Z,13.67
2022-12-05T12:19:48.099Z,12.27
2022-12-05T12:21:18.998Z,12.70
2022-12-05T12:22:27.938Z,14.37
2022-12-05T12:23:47.559Z,13.33
2022-12-05T12:25:08.813Z,12.57
2022-12-05T12:26:16.567Z,11.87
2022-12-05T12:27:45.941Z,12.77
2022-12-05T12:29:32.546Z,13.53
2022-12-05T12:30:54.728Z,10.93
2022-12-05T12:32:33.554Z,12.70
2022-12-05T12:34:00.416Z,10.97
2022-12-05T12:35:28.132Z,10.70
2022-12-05T12:36:48.717Z,12.63
2022-12-05T12:38:33.288Z,13.17
2022-12-05T12:39:54.937Z,12.70
2022-12-05T12:41:14.485Z,11.73
2022-12-05T12:42:40.387Z,11.83
2022-12-05T12:44:07.030Z,11.60
2022-12-05T12:45:40.355Z,9.53
2022-12-05T12:46:55.361Z,10.17
2022-12-05T12:48:18.772Z,10.00
2022-12-05T12:49:53.583Z,10.97
2022-12-05T12:50:57.395Z,10.70
2022-12-05T12:52:07.826Z,10.90
2022-12-05T12:53:31.503Z,9.13
2022-12-05T12:55:07.514Z,9.90
2022-12-05T12:56:38.594Z,8.80
2022-12-05T12:57:59.698Z,8.53
2022-12-05T12:59:16.005Z,9.23
2022-12-05T13:00:35.705Z,8.47
2022-12-05T13:01:50.065Z,10.47
2022-12-05T13:03:09.008Z,8.97
2022-12-05T13:04:16.041Z,9.53
2022-12-05T13:05:38.922Z,10.13
2022-12-05T13:06:58.407Z,8.93
2022-12-05T13:08:12.506Z,9.20
2022-12-05T13:09:23.197Z,9.60
2022-12-05T13:10:40.709Z,9.30
2022-12-05T13:11:45.833Z,9.83
2022-12-05T13:12:49.661Z,9.87
2022-12-05T13:13:58.815Z,9.77
2022-12-05T13:15:18.596Z,9.60
2022-12-05T13:16:32.875Z,9.13
2022-12-05T13:17:36.100Z,9.23
2022-12-05T13:18:39.908Z,8.13
2022-12-05T13:19:50.326Z,8.00
2022-12-05T13:21:06.730Z,9.30
2022-12-05T13:22:10.049Z,9.00
2022-12-05T13:23:18.893Z,9.67
2022-12-05T13:24:28.538Z,8.50
2022-12-05T13:25:34.763Z,8.17
2022-12-05T13:26:48.468Z,7.43
2022-12-05T13:27:57.504Z,6.50
2022-12-05T13:29:02.412Z,6.40
2022-12-05T13:30:10.841Z,6.07
2022-12-05T13:31:18.098Z,6.70
2022-12-05T13:32:37.189Z,5.30
2022-12-05T13:33:51.454Z,5.30
2022-12-05T13:34:55.023Z,5.30
2022-12-05T13:36:28.109Z,5.47
2022-12-05T13:37:50.165Z,5.07
2022-12-05T13:39:16.778Z,5.20
2022-12-05T13:40:47.972Z,5.37
2022-12-05T13:42:13.377Z,6.03
2022-12-05T13:43:19.548Z,5.87
2022-12-05T13:44:33.437Z,5.97
2022-12-05T13:45:36.137Z,6.87
2022-12-05T13:46:43.455Z,5.83
2022-12-05T13:47:59.295Z,5.73
2022-12-05T13:49:17.143Z,6.57
2022-12-05T13:50:34.852Z,6.07
2022-12-05T13:51:42.798Z,6.83
2022-12-05T13:52:52.272Z,6.17
2022-12-05T13:54:04.608Z,6.90
2022-12-05T13:55:35.309Z,6.20
2022-12-05T13:56:50.367Z,6.67
2022-12-05T13:58:00.655Z,6.67
2022-12-05T13:59:04.045Z,8.00
2022-12-05T14:00:12.593Z,8.43
2022-12-05T14:01:27.127Z,8.37
2022-12-05T14:02:47.616Z,8.77
2022-12-05T14:04:00.980Z,7.20
2022-12-05T14:05:25.186Z,7.30
2022-12-05T14:06:39.536Z,7.10
2022-12-05T14:07:52.906Z,7.73
2022-12-05T14:08:55.247Z,7.53
2022-12-05T14:09:57.680Z,7.60
2022-12-05T14:10:59.976Z,8.40
2022-12-05T14:12:11.295Z,7.17
2022-12-05T14:13:16.221Z,7.63
2022-12-05T14:14:59.700Z,8.40
2022-12-05T14:16:44.535Z,9.23
2022-12-05T14:17:46.873Z,8.40
2022-12-05T14:19:00.481Z,9.63
2022-12-05T14:20:24.378Z,9.30
2022-12-05T14:21:56.340Z,9.87
2022-12-05T14:23:09.260Z,9.67
2022-12-05T14:24:32.135Z,9.53
2022-12-05T14:25:59.095Z,9.00
2022-12-05T14:27:45.073Z,9.63
2022-12-05T14:28:58.689Z,9.67
2022-12-05T14:30:21.791Z,11.03
2022-12-05T14:31:39.406Z,8.60
2022-12-05T14:32:42.764Z,8.80
2022-12-05T14:33:45.518Z,9.70
2022-12-05T14:34:56.184Z,8.37
2022-12-05T14:36:09.057Z,8.97
2022-12-05T14:37:16.958Z,9.30
2022-12-05T14:38:31.067Z,8.00
2022-12-05T14:39:55.490Z,9.47
2022-12-05T14:41:13.026Z,10.30
2022-12-05T14:43:00.285Z,9.73
2022-12-05T14:44:08.476Z,9.27
2022-12-05T14:45:26.925Z,9.33
2022-12-05T14:46:51.269Z,8.73
2022-12-05T14:47:59.310Z,10.77
2022-12-05T14:49:37.686Z,8.67
2022-12-05T14:50:46.521Z,8.97
2022-12-05T14:51:58.166Z,9.80
2022-12-05T14:53:15.511Z,8.47
2022-12-05T14:54:19.818Z,9.57
2022-12-05T14:55:26.904Z,12.50
2022-12-05T14:56:30.558Z,10.93
2022-12-05T14:57:36.080Z,8.73
2022-12-05T14:58:59.728Z,9.17
2022-12-05T15:00:15.605Z,9.60
2022-12-05T15:01:45.828Z,9.70
2022-12-05T15:02:51.476Z,11.63